sensor_id;sensor_type;location;lat;lon;timestamp;P1;durP1;ratioP1;P2;durP2;ratioP2
12441;SDS011;6285;48.804;9.220;2022-09-06T00:00:41;6.88;;;6.13;;
12441;SDS011;6285;48.804;9.220;2022-09-06T00:03:09;8.25;;;6.55;;
12441;SDS011;6285;48.804;9.220;2022-09-06T00:05:36;12.50;;;6.75;;
12441;SDS011;6285;48.804;9.220;2022-09-06T00:08:05;11.73;;;6.10;;
12441;SDS011;6285;48.804;9.220;2022-09-06T00:10:32;8.25;;;6.15;;
12441;SDS011;6285;48.804;9.220;2022-09-06T00:13:01;10.25;;;6.80;;
12441;SDS011;6285;48.804;9.220;2022-09-06T00:15:29;10.98;;;6.57;;
12441;SDS011;6285;48.804;9.220;2022-09-06T00:17:57;12.05;;;6.70;;
12441;SDS011;6285;48.804;9.220;2022-09-06T00:20:26;9.60;;;6.38;;
12441;SDS011;6285;48.804;9.220;2022-09-06T00:22:55;10.15;;;7.18;;
12441;SDS011;6285;48.804;9.220;2022-09-06T00:25:22;11.18;;;6.32;;
12441;SDS011;6285;48.804;9.220;2022-09-06T00:27:52;9.05;;;5.68;;
12441;SDS011;6285;48.804;9.220;2022-09-06T00:30:19;7.15;;;5.15;;
12441;SDS011;6285;48.804;9.220;2022-09-06T00:32:46;8.18;;;5.10;;
12441;SDS011;6285;48.804;9.220;2022-09-06T00:35:13;10.15;;;5.90;;
12441;SDS011;6285;48.804;9.220;2022-09-06T00:37:41;7.00;;;5.47;;
12441;SDS011;6285;48.804;9.220;2022-09-06T00:40:09;5.85;;;5.28;;
12441;SDS011;6285;48.804;9.220;2022-09-06T00:42:36;7.20;;;5.28;;
12441;SDS011;6285;48.804;9.220;2022-09-06T00:45:03;8.25;;;5.43;;
12441;SDS011;6285;48.804;9.220;2022-09-06T00:47:31;6.63;;;5.05;;
12441;SDS011;6285;48.804;9.220;2022-09-06T00:50:00;7.00;;;4.95;;
12441;SDS011;6285;48.804;9.220;2022-09-06T00:52:28;6.45;;;5.20;;
12441;SDS011;6285;48.804;9.220;2022-09-06T00:54:57;9.00;;;5.65;;
12441;SDS011;6285;48.804;9.220;2022-09-06T00:57:25;9.85;;;5.70;;
12441;SDS011;6285;48.804;9.220;2022-09-06T00:59:53;7.30;;;5.20;;
12441;SDS011;6285;48.804;9.220;2022-09-06T01:02:21;9.23;;;5.50;;
12441;SDS011;6285;48.804;9.220;2022-09-06T01:04:48;7.68;;;5.60;;
12441;SDS011;6285;48.804;9.220;2022-09-06T01:07:17;9.52;;;5.53;;
12441;SDS011;6285;48.804;9.220;2022-09-06T01:09:50;8.30;;;5.38;;
12441;SDS011;6285;48.804;9.220;2022-09-06T01:12:28;5.70;;;5.13;;
12441;SDS011;6285;48.804;9.220;2022-09-06T01:15:02;10.65;;;5.90;;
12441;SDS011;6285;48.804;9.220;2022-09-06T01:17:34;7.50;;;5.95;;
12441;SDS011;6285;48.804;9.220;2022-09-06T01:20:15;8.20;;;5.88;;
12441;SDS011;6285;48.804;9.220;2022-09-06T01:22:57;8.98;;;6.03;;
12441;SDS011;6285;48.804;9.220;2022-09-06T01:25:33;8.80;;;5.85;;
12441;SDS011;6285;48.804;9.220;2022-09-06T01:28:09;9.27;;;6.03;;
12441;SDS011;6285;48.804;9.220;2022-09-06T01:30:41;8.45;;;6.10;;
12441;SDS011;6285;48.804;9.220;2022-09-06T01:33:12;8.80;;;5.30;;
12441;SDS011;6285;48.804;9.220;2022-09-06T01:35:42;7.93;;;6.25;;
12441;SDS011;6285;48.804;9.220;2022-09-06T01:38:13;11.25;;;5.45;;
12441;SDS011;6285;48.804;9.220;2022-09-06T01:40:41;7.55;;;5.57;;
12441;SDS011;6285;48.804;9.220;2022-09-06T01:43:10;8.90;;;5.55;;
12441;SDS011;6285;48.804;9.220;2022-09-06T01:45:40;7.40;;;5.05;;
12441;SDS011;6285;48.804;9.220;2022-09-06T01:48:10;8.10;;;5.32;;
12441;SDS011;6285;48.804;9.220;2022-09-06T01:53:34;7.28;;;5.45;;
12441;SDS011;6285;48.804;9.220;2022-09-06T01:56:06;7.25;;;5.68;;
12441;SDS011;6285;48.804;9.220;2022-09-06T01:58:41;8.60;;;5.93;;
12441;SDS011;6285;48.804;9.220;2022-09-06T02:01:17;6.53;;;4.95;;
12441;SDS011;6285;48.804;9.220;2022-09-06T02:03:48;7.68;;;4.78;;
12441;SDS011;6285;48.804;9.220;2022-09-06T02:06:19;8.50;;;5.30;;
12441;SDS011;6285;48.804;9.220;2022-09-06T02:08:48;8.23;;;5.13;;
12441;SDS011;6285;48.804;9.220;2022-09-06T02:11:17;9.05;;;5.63;;
12441;SDS011;6285;48.804;9.220;2022-09-06T02:13:46;6.82;;;5.18;;
12441;SDS011;6285;48.804;9.220;2022-09-06T02:16:17;6.78;;;5.28;;
12441;SDS011;6285;48.804;9.220;2022-09-06T02:18:46;6.55;;;4.30;;
12441;SDS011;6285;48.804;9.220;2022-09-06T02:21:17;6.10;;;4.47;;
12441;SDS011;6285;48.804;9.220;2022-09-06T02:23:47;4.72;;;4.30;;
12441;SDS011;6285;48.804;9.220;2022-09-06T02:26:16;8.23;;;4.07;;
12441;SDS011;6285;48.804;9.220;2022-09-06T02:28:45;5.72;;;4.13;;
12441;SDS011;6285;48.804;9.220;2022-09-06T02:31:15;5.95;;;4.28;;
12441;SDS011;6285;48.804;9.220;2022-09-06T02:33:44;5.15;;;4.05;;
12441;SDS011;6285;48.804;9.220;2022-09-06T02:36:11;4.97;;;3.67;;
12441;SDS011;6285;48.804;9.220;2022-09-06T02:38:40;4.80;;;4.03;;
12441;SDS011;6285;48.804;9.220;2022-09-06T02:41:09;5.35;;;4.10;;
12441;SDS011;6285;48.804;9.220;2022-09-06T02:43:36;4.68;;;4.22;;
12441;SDS011;6285;48.804;9.220;2022-09-06T02:46:06;4.82;;;4.13;;
12441;SDS011;6285;48.804;9.220;2022-09-06T02:48:33;5.72;;;4.78;;
12441;SDS011;6285;48.804;9.220;2022-09-06T02:51:01;5.00;;;4.50;;
12441;SDS011;6285;48.804;9.220;2022-09-06T02:53:28;7.50;;;4.30;;
12441;SDS011;6285;48.804;9.220;2022-09-06T02:55:55;6.65;;;4.30;;
12441;SDS011;6285;48.804;9.220;2022-09-06T02:58:22;6.20;;;4.45;;
12441;SDS011;6285;48.804;9.220;2022-09-06T03:00:50;10.77;;;5.80;;
12441;SDS011;6285;48.804;9.220;2022-09-06T03:03:19;8.93;;;5.30;;
12441;SDS011;6285;48.804;9.220;2022-09-06T03:05:46;8.35;;;5.32;;
12441;SDS011;6285;48.804;9.220;2022-09-06T03:08:43;9.05;;;5.30;;
12441;SDS011;6285;48.804;9.220;2022-09-06T03:11:24;6.18;;;4.07;;
12441;SDS011;6285;48.804;9.220;2022-09-06T03:13:51;6.97;;;4.63;;
12441;SDS011;6285;48.804;9.220;2022-09-06T03:16:18;8.00;;;4.88;;
12441;SDS011;6285;48.804;9.220;2022-09-06T03:18:48;7.03;;;5.57;;
12441;SDS011;6285;48.804;9.220;2022-09-06T03:21:15;8.52;;;5.90;;
12441;SDS011;6285;48.804;9.220;2022-09-06T03:23:42;7.18;;;5.18;;
12441;SDS011;6285;48.804;9.220;2022-09-06T03:26:10;7.00;;;5.10;;
12441;SDS011;6285;48.804;9.220;2022-09-06T03:28:37;7.07;;;5.68;;
12441;SDS011;6285;48.804;9.220;2022-09-06T03:31:04;7.57;;;5.97;;
12441;SDS011;6285;48.804;9.220;2022-09-06T03:33:34;8.30;;;5.90;;
12441;SDS011;6285;48.804;9.220;2022-09-06T03:39:28;9.35;;;6.72;;
12441;SDS011;6285;48.804;9.220;2022-09-06T03:41:55;7.95;;;6.70;;
12441;SDS011;6285;48.804;9.220;2022-09-06T03:44:23;9.38;;;6.97;;
12441;SDS011;6285;48.804;9.220;2022-09-06T03:46:50;9.45;;;6.78;;
12441;SDS011;6285;48.804;9.220;2022-09-06T03:49:17;9.07;;;7.20;;
12441;SDS011;6285;48.804;9.220;2022-09-06T03:51:44;10.95;;;6.82;;
12441;SDS011;6285;48.804;9.220;2022-09-06T03:54:11;9.52;;;7.05;;
12441;SDS011;6285;48.804;9.220;2022-09-06T03:56:40;12.18;;;6.97;;
12441;SDS011;6285;48.804;9.220;2022-09-06T03:59:07;9.20;;;7.20;;
12441;SDS011;6285;48.804;9.220;2022-09-06T04:01:34;9.50;;;6.65;;
12441;SDS011;6285;48.804;9.220;2022-09-06T04:04:01;11.13;;;7.50;;
12441;SDS011;6285;48.804;9.220;2022-09-06T04:06:28;9.23;;;7.45;;
12441;SDS011;6285;48.804;9.220;2022-09-06T04:08:55;11.60;;;8.18;;
12441;SDS011;6285;48.804;9.220;2022-09-06T04:11:23;10.45;;;7.72;;
12441;SDS011;6285;48.804;9.220;2022-09-06T04:13:53;10.75;;;8.05;;
12441;SDS011;6285;48.804;9.220;2022-09-06T04:16:20;8.50;;;7.55;;
12441;SDS011;6285;48.804;9.220;2022-09-06T04:18:47;9.18;;;7.40;;
12441;SDS011;6285;48.804;9.220;2022-09-06T04:21:14;8.68;;;7.43;;
12441;SDS011;6285;48.804;9.220;2022-09-06T04:23:41;12.88;;;7.80;;
12441;SDS011;6285;48.804;9.220;2022-09-06T04:26:08;11.60;;;7.88;;
12441;SDS011;6285;48.804;9.220;2022-09-06T04:28:35;10.05;;;7.95;;
12441;SDS011;6285;48.804;9.220;2022-09-06T04:31:04;15.07;;;7.93;;
12441;SDS011;6285;48.804;9.220;2022-09-06T04:33:31;13.27;;;8.65;;
12441;SDS011;6285;48.804;9.220;2022-09-06T04:35:59;10.90;;;9.25;;
12441;SDS011;6285;48.804;9.220;2022-09-06T04:38:33;13.50;;;9.63;;
12441;SDS011;6285;48.804;9.220;2022-09-06T04:41:00;10.38;;;7.32;;
12441;SDS011;6285;48.804;9.220;2022-09-06T04:43:27;16.15;;;10.48;;
12441;SDS011;6285;48.804;9.220;2022-09-06T04:45:55;15.15;;;9.52;;
12441;SDS011;6285;48.804;9.220;2022-09-06T04:48:23;13.88;;;10.25;;
12441;SDS011;6285;48.804;9.220;2022-09-06T04:50:50;13.38;;;9.85;;
12441;SDS011;6285;48.804;9.220;2022-09-06T04:53:18;11.68;;;10.07;;
12441;SDS011;6285;48.804;9.220;2022-09-06T04:55:45;12.30;;;10.25;;
12441;SDS011;6285;48.804;9.220;2022-09-06T04:58:12;12.55;;;10.02;;
12441;SDS011;6285;48.804;9.220;2022-09-06T05:00:39;11.55;;;9.48;;
12441;SDS011;6285;48.804;9.220;2022-09-06T05:03:08;12.90;;;9.23;;
12441;SDS011;6285;48.804;9.220;2022-09-06T05:05:37;14.90;;;9.35;;
12441;SDS011;6285;48.804;9.220;2022-09-06T05:08:04;12.55;;;9.07;;
12441;SDS011;6285;48.804;9.220;2022-09-06T05:10:31;10.95;;;9.13;;
12441;SDS011;6285;48.804;9.220;2022-09-06T05:12:58;12.30;;;8.95;;
12441;SDS011;6285;48.804;9.220;2022-09-06T05:15:25;12.27;;;8.80;;
12441;SDS011;6285;48.804;9.220;2022-09-06T05:17:52;12.13;;;9.30;;
12441;SDS011;6285;48.804;9.220;2022-09-06T05:20:19;10.55;;;8.73;;
12441;SDS011;6285;48.804;9.220;2022-09-06T05:22:51;15.20;;;9.07;;
12441;SDS011;6285;48.804;9.220;2022-09-06T05:25:19;12.75;;;9.05;;
12441;SDS011;6285;48.804;9.220;2022-09-06T05:27:46;14.80;;;9.05;;
12441;SDS011;6285;48.804;9.220;2022-09-06T05:30:13;12.60;;;8.70;;
12441;SDS011;6285;48.804;9.220;2022-09-06T05:32:42;10.85;;;7.57;;
12441;SDS011;6285;48.804;9.220;2022-09-06T05:35:09;13.18;;;8.73;;
12441;SDS011;6285;48.804;9.220;2022-09-06T05:37:36;11.23;;;8.45;;
12441;SDS011;6285;48.804;9.220;2022-09-06T05:40:05;11.45;;;8.48;;
12441;SDS011;6285;48.804;9.220;2022-09-06T05:42:32;12.68;;;8.85;;
12441;SDS011;6285;48.804;9.220;2022-09-06T05:44:59;10.05;;;8.00;;
12441;SDS011;6285;48.804;9.220;2022-09-06T05:47:26;10.95;;;7.97;;
12441;SDS011;6285;48.804;9.220;2022-09-06T05:49:55;10.77;;;8.65;;
12441;SDS011;6285;48.804;9.220;2022-09-06T05:52:23;9.50;;;8.50;;
12441;SDS011;6285;48.804;9.220;2022-09-06T05:54:50;13.98;;;9.07;;
12441;SDS011;6285;48.804;9.220;2022-09-06T05:57:19;12.10;;;9.25;;
12441;SDS011;6285;48.804;9.220;2022-09-06T05:59:46;13.35;;;8.90;;
12441;SDS011;6285;48.804;9.220;2022-09-06T06:02:13;16.80;;;8.68;;
12441;SDS011;6285;48.804;9.220;2022-09-06T06:04:47;11.07;;;8.73;;
12441;SDS011;6285;48.804;9.220;2022-09-06T06:10:23;10.23;;;7.82;;
12441;SDS011;6285;48.804;9.220;2022-09-06T06:16:21;9.45;;;8.13;;
12441;SDS011;6285;48.804;9.220;2022-09-06T06:18:54;17.48;;;8.90;;
12441;SDS011;6285;48.804;9.220;2022-09-06T06:21:22;11.55;;;8.82;;
12441;SDS011;6285;48.804;9.220;2022-09-06T06:23:50;10.60;;;8.68;;
12441;SDS011;6285;48.804;9.220;2022-09-06T06:26:20;10.90;;;8.10;;
12441;SDS011;6285;48.804;9.220;2022-09-06T06:28:49;11.88;;;8.32;;
12441;SDS011;6285;48.804;9.220;2022-09-06T06:31:17;12.30;;;7.70;;
12441;SDS011;6285;48.804;9.220;2022-09-06T06:33:47;13.93;;;7.70;;
12441;SDS011;6285;48.804;9.220;2022-09-06T06:36:20;10.50;;;7.57;;
12441;SDS011;6285;48.804;9.220;2022-09-06T06:38:48;11.65;;;7.15;;
12441;SDS011;6285;48.804;9.220;2022-09-06T06:41:31;9.10;;;6.90;;
12441;SDS011;6285;48.804;9.220;2022-09-06T06:44:01;9.50;;;6.97;;
12441;SDS011;6285;48.804;9.220;2022-09-06T06:46:46;13.48;;;7.57;;
12441;SDS011;6285;48.804;9.220;2022-09-06T06:49:18;11.13;;;8.13;;
12441;SDS011;6285;48.804;9.220;2022-09-06T06:51:45;15.07;;;7.72;;
12441;SDS011;6285;48.804;9.220;2022-09-06T06:54:14;10.52;;;7.78;;
12441;SDS011;6285;48.804;9.220;2022-09-06T06:56:41;9.98;;;6.30;;
12441;SDS011;6285;48.804;9.220;2022-09-06T06:59:18;9.80;;;6.50;;
12441;SDS011;6285;48.804;9.220;2022-09-06T07:01:45;11.07;;;6.32;;
12441;SDS011;6285;48.804;9.220;2022-09-06T07:04:14;7.95;;;5.60;;
12441;SDS011;6285;48.804;9.220;2022-09-06T07:06:46;7.68;;;6.03;;
12441;SDS011;6285;48.804;9.220;2022-09-06T07:09:13;7.53;;;5.40;;
12441;SDS011;6285;48.804;9.220;2022-09-06T07:11:41;6.82;;;4.75;;
12441;SDS011;6285;48.804;9.220;2022-09-06T07:14:07;5.05;;;4.55;;
12441;SDS011;6285;48.804;9.220;2022-09-06T07:16:34;7.78;;;4.63;;
12441;SDS011;6285;48.804;9.220;2022-09-06T07:19:01;9.38;;;4.72;;
12441;SDS011;6285;48.804;9.220;2022-09-06T07:21:28;6.75;;;5.50;;
12441;SDS011;6285;48.804;9.220;2022-09-06T07:23:57;5.75;;;4.90;;
12441;SDS011;6285;48.804;9.220;2022-09-06T07:26:24;7.63;;;5.05;;
12441;SDS011;6285;48.804;9.220;2022-09-06T07:28:52;8.93;;;4.90;;
12441;SDS011;6285;48.804;9.220;2022-09-06T07:31:19;4.80;;;4.30;;
12441;SDS011;6285;48.804;9.220;2022-09-06T07:33:46;7.57;;;4.60;;
12441;SDS011;6285;48.804;9.220;2022-09-06T07:36:13;6.97;;;4.93;;
12441;SDS011;6285;48.804;9.220;2022-09-06T07:38:40;7.40;;;5.03;;
12441;SDS011;6285;48.804;9.220;2022-09-06T07:41:09;9.10;;;5.32;;
12441;SDS011;6285;48.804;9.220;2022-09-06T07:43:36;7.88;;;4.97;;
12441;SDS011;6285;48.804;9.220;2022-09-06T07:46:03;5.82;;;4.22;;
12441;SDS011;6285;48.804;9.220;2022-09-06T07:48:32;7.40;;;4.75;;
12441;SDS011;6285;48.804;9.220;2022-09-06T07:51:03;5.97;;;4.70;;
12441;SDS011;6285;48.804;9.220;2022-09-06T07:53:31;7.70;;;5.10;;
12441;SDS011;6285;48.804;9.220;2022-09-06T07:55:58;6.95;;;4.78;;
12441;SDS011;6285;48.804;9.220;2022-09-06T07:58:26;10.20;;;5.38;;
12441;SDS011;6285;48.804;9.220;2022-09-06T08:00:54;7.07;;;5.38;;
12441;SDS011;6285;48.804;9.220;2022-09-06T08:03:39;8.52;;;5.38;;
12441;SDS011;6285;48.804;9.220;2022-09-06T08:06:05;7.05;;;4.93;;
12441;SDS011;6285;48.804;9.220;2022-09-06T08:08:32;5.95;;;4.53;;
12441;SDS011;6285;48.804;9.220;2022-09-06T08:10:59;9.60;;;5.25;;
12441;SDS011;6285;48.804;9.220;2022-09-06T08:13:28;8.80;;;4.60;;
12441;SDS011;6285;48.804;9.220;2022-09-06T08:15:56;6.45;;;4.82;;
12441;SDS011;6285;48.804;9.220;2022-09-06T08:18:24;6.15;;;4.90;;
12441;SDS011;6285;48.804;9.220;2022-09-06T08:20:51;4.68;;;4.28;;
12441;SDS011;6285;48.804;9.220;2022-09-06T08:23:17;8.65;;;4.90;;
12441;SDS011;6285;48.804;9.220;2022-09-06T08:25:54;9.05;;;4.40;;
12441;SDS011;6285;48.804;9.220;2022-09-06T08:28:22;9.88;;;4.40;;
12441;SDS011;6285;48.804;9.220;2022-09-06T08:30:50;8.63;;;4.40;;
12441;SDS011;6285;48.804;9.220;2022-09-06T08:33:18;7.05;;;4.80;;
12441;SDS011;6285;48.804;9.220;2022-09-06T08:35:53;6.55;;;4.35;;
12441;SDS011;6285;48.804;9.220;2022-09-06T08:38:20;7.47;;;4.55;;
12441;SDS011;6285;48.804;9.220;2022-09-06T08:40:47;7.05;;;4.15;;
12441;SDS011;6285;48.804;9.220;2022-09-06T08:43:15;7.93;;;3.83;;
12441;SDS011;6285;48.804;9.220;2022-09-06T08:45:44;9.65;;;4.57;;
12441;SDS011;6285;48.804;9.220;2022-09-06T08:48:14;6.80;;;4.40;;
12441;SDS011;6285;48.804;9.220;2022-09-06T08:50:41;4.97;;;4.28;;
12441;SDS011;6285;48.804;9.220;2022-09-06T08:53:16;7.95;;;4.68;;
12441;SDS011;6285;48.804;9.220;2022-09-06T08:55:45;6.75;;;4.22;;
12441;SDS011;6285;48.804;9.220;2022-09-06T08:58:23;7.53;;;4.20;;
12441;SDS011;6285;48.804;9.220;2022-09-06T09:01:00;9.82;;;4.38;;
12441;SDS011;6285;48.804;9.220;2022-09-06T09:03:32;6.03;;;3.92;;
12441;SDS011;6285;48.804;9.220;2022-09-06T09:06:02;7.43;;;4.30;;
12441;SDS011;6285;48.804;9.220;2022-09-06T09:08:31;5.93;;;4.15;;
12441;SDS011;6285;48.804;9.220;2022-09-06T09:11:01;7.20;;;4.00;;
12441;SDS011;6285;48.804;9.220;2022-09-06T09:13:29;6.80;;;4.53;;
12441;SDS011;6285;48.804;9.220;2022-09-06T09:16:00;5.47;;;4.07;;
12441;SDS011;6285;48.804;9.220;2022-09-06T09:18:28;9.02;;;3.83;;
12441;SDS011;6285;48.804;9.220;2022-09-06T09:20:58;5.95;;;3.55;;
12441;SDS011;6285;48.804;9.220;2022-09-06T09:23:26;6.35;;;4.07;;
12441;SDS011;6285;48.804;9.220;2022-09-06T09:25:54;8.05;;;4.45;;
12441;SDS011;6285;48.804;9.220;2022-09-06T09:28:25;8.05;;;4.55;;
12441;SDS011;6285;48.804;9.220;2022-09-06T09:30:52;8.55;;;4.50;;
12441;SDS011;6285;48.804;9.220;2022-09-06T09:33:21;8.07;;;4.28;;
12441;SDS011;6285;48.804;9.220;2022-09-06T09:35:48;6.57;;;4.07;;
12441;SDS011;6285;48.804;9.220;2022-09-06T09:38:19;7.22;;;4.75;;
12441;SDS011;6285;48.804;9.220;2022-09-06T09:40:50;8.30;;;3.95;;
12441;SDS011;6285;48.804;9.220;2022-09-06T09:43:19;5.65;;;4.03;;
12441;SDS011;6285;48.804;9.220;2022-09-06T09:45:56;7.88;;;3.88;;
12441;SDS011;6285;48.804;9.220;2022-09-06T09:48:24;9.35;;;3.55;;
12441;SDS011;6285;48.804;9.220;2022-09-06T09:50:52;7.20;;;3.42;;
12441;SDS011;6285;48.804;9.220;2022-09-06T09:53:21;7.57;;;3.53;;
12441;SDS011;6285;48.804;9.220;2022-09-06T09:55:53;7.38;;;3.40;;
12441;SDS011;6285;48.804;9.220;2022-09-06T09:58:29;6.95;;;3.22;;
12441;SDS011;6285;48.804;9.220;2022-09-06T10:01:11;6.20;;;3.28;;
12441;SDS011;6285;48.804;9.220;2022-09-06T10:03:45;10.13;;;3.30;;
12441;SDS011;6285;48.804;9.220;2022-09-06T10:06:12;7.00;;;3.30;;
12441;SDS011;6285;48.804;9.220;2022-09-06T10:08:41;11.38;;;3.75;;
12441;SDS011;6285;48.804;9.220;2022-09-06T10:11:12;5.95;;;2.88;;
12441;SDS011;6285;48.804;9.220;2022-09-06T10:13:39;5.78;;;3.22;;
12441;SDS011;6285;48.804;9.220;2022-09-06T10:16:07;7.97;;;3.60;;
12441;SDS011;6285;48.804;9.220;2022-09-06T10:18:34;6.68;;;3.90;;
12441;SDS011;6285;48.804;9.220;2022-09-06T10:21:03;6.55;;;3.83;;
12441;SDS011;6285;48.804;9.220;2022-09-06T10:23:32;4.75;;;3.38;;
12441;SDS011;6285;48.804;9.220;2022-09-06T10:26:04;7.55;;;3.63;;
12441;SDS011;6285;48.804;9.220;2022-09-06T10:28:34;5.30;;;2.88;;
12441;SDS011;6285;48.804;9.220;2022-09-06T10:31:18;8.57;;;3.30;;
12441;SDS011;6285;48.804;9.220;2022-09-06T10:33:54;4.28;;;2.70;;
12441;SDS011;6285;48.804;9.220;2022-09-06T10:36:29;6.20;;;2.70;;
12441;SDS011;6285;48.804;9.220;2022-09-06T10:38:59;4.97;;;2.92;;
12441;SDS011;6285;48.804;9.220;2022-09-06T10:41:33;4.57;;;2.63;;
12441;SDS011;6285;48.804;9.220;2022-09-06T10:44:07;7.40;;;3.10;;
12441;SDS011;6285;48.804;9.220;2022-09-06T10:46:47;6.70;;;3.15;;
12441;SDS011;6285;48.804;9.220;2022-09-06T10:49:21;5.55;;;2.58;;
12441;SDS011;6285;48.804;9.220;2022-09-06T10:51:49;5.00;;;2.45;;
12441;SDS011;6285;48.804;9.220;2022-09-06T10:54:20;7.70;;;2.83;;
12441;SDS011;6285;48.804;9.220;2022-09-06T10:56:50;7.25;;;2.58;;
12441;SDS011;6285;48.804;9.220;2022-09-06T10:59:19;5.78;;;2.63;;
12441;SDS011;6285;48.804;9.220;2022-09-06T11:01:54;5.60;;;2.53;;
12441;SDS011;6285;48.804;9.220;2022-09-06T11:04:29;6.40;;;2.53;;
12441;SDS011;6285;48.804;9.220;2022-09-06T11:06:58;11.40;;;2.97;;
12441;SDS011;6285;48.804;9.220;2022-09-06T11:09:30;5.55;;;2.80;;
12441;SDS011;6285;48.804;9.220;2022-09-06T11:12:05;6.68;;;3.78;;
12441;SDS011;6285;48.804;9.220;2022-09-06T11:14:32;5.57;;;2.90;;
12441;SDS011;6285;48.804;9.220;2022-09-06T11:17:01;6.70;;;3.33;;
12441;SDS011;6285;48.804;9.220;2022-09-06T11:19:31;7.93;;;3.17;;
12441;SDS011;6285;48.804;9.220;2022-09-06T11:25:20;4.75;;;2.50;;
12441;SDS011;6285;48.804;9.220;2022-09-06T11:27:50;5.38;;;2.88;;
12441;SDS011;6285;48.804;9.220;2022-09-06T11:30:19;4.65;;;3.10;;
12441;SDS011;6285;48.804;9.220;2022-09-06T11:32:47;6.47;;;2.80;;
12441;SDS011;6285;48.804;9.220;2022-09-06T11:35:21;4.95;;;2.53;;
12441;SDS011;6285;48.804;9.220;2022-09-06T11:37:57;6.70;;;2.88;;
12441;SDS011;6285;48.804;9.220;2022-09-06T11:40:25;5.40;;;2.50;;
12441;SDS011;6285;48.804;9.220;2022-09-06T11:43:09;8.15;;;2.70;;
12441;SDS011;6285;48.804;9.220;2022-09-06T11:45:40;9.75;;;3.20;;
12441;SDS011;6285;48.804;9.220;2022-09-06T11:51:00;7.68;;;3.42;;
12441;SDS011;6285;48.804;9.220;2022-09-06T11:53:31;6.68;;;2.97;;
12441;SDS011;6285;48.804;9.220;2022-09-06T11:56:09;10.52;;;3.55;;
12441;SDS011;6285;48.804;9.220;2022-09-06T11:58:44;6.95;;;2.88;;
12441;SDS011;6285;48.804;9.220;2022-09-06T12:01:33;7.75;;;2.88;;
12441;SDS011;6285;48.804;9.220;2022-09-06T12:04:06;5.93;;;3.05;;
12441;SDS011;6285;48.804;9.220;2022-09-06T12:06:34;8.40;;;3.22;;
12441;SDS011;6285;48.804;9.220;2022-09-06T12:11:45;7.25;;;3.35;;
12441;SDS011;6285;48.804;9.220;2022-09-06T12:14:24;7.60;;;2.90;;
12441;SDS011;6285;48.804;9.220;2022-09-06T12:19:40;7.07;;;3.15;;
12441;SDS011;6285;48.804;9.220;2022-09-06T12:24:51;7.35;;;3.22;;
12441;SDS011;6285;48.804;9.220;2022-09-06T12:27:18;8.20;;;3.83;;
12441;SDS011;6285;48.804;9.220;2022-09-06T12:29:57;6.43;;;3.25;;
12441;SDS011;6285;48.804;9.220;2022-09-06T12:32:26;6.70;;;3.20;;
12441;SDS011;6285;48.804;9.220;2022-09-06T12:34:54;7.00;;;3.40;;
12441;SDS011;6285;48.804;9.220;2022-09-06T12:37:29;8.93;;;3.88;;
12441;SDS011;6285;48.804;9.220;2022-09-06T12:39:57;8.02;;;4.45;;
12441;SDS011;6285;48.804;9.220;2022-09-06T12:42:25;12.80;;;5.47;;
12441;SDS011;6285;48.804;9.220;2022-09-06T12:44:52;14.70;;;5.13;;
12441;SDS011;6285;48.804;9.220;2022-09-06T12:47:22;10.45;;;4.75;;
12441;SDS011;6285;48.804;9.220;2022-09-06T12:50:04;8.63;;;4.20;;
12441;SDS011;6285;48.804;9.220;2022-09-06T12:52:32;9.05;;;4.53;;
12441;SDS011;6285;48.804;9.220;2022-09-06T12:54:59;11.65;;;5.35;;
12441;SDS011;6285;48.804;9.220;2022-09-06T12:57:26;12.65;;;5.18;;
12441;SDS011;6285;48.804;9.220;2022-09-06T12:59:54;14.10;;;5.63;;
12441;SDS011;6285;48.804;9.220;2022-09-06T13:02:28;11.00;;;5.57;;
12441;SDS011;6285;48.804;9.220;2022-09-06T13:04:59;8.88;;;5.53;;
12441;SDS011;6285;48.804;9.220;2022-09-06T13:07:30;8.70;;;5.70;;
12441;SDS011;6285;48.804;9.220;2022-09-06T13:09:59;9.00;;;5.43;;
12441;SDS011;6285;48.804;9.220;2022-09-06T13:12:29;12.02;;;6.00;;
12441;SDS011;6285;48.804;9.220;2022-09-06T13:15:00;11.60;;;6.50;;
12441;SDS011;6285;48.804;9.220;2022-09-06T13:17:31;10.07;;;6.85;;
12441;SDS011;6285;48.804;9.220;2022-09-06T13:20:07;13.32;;;6.55;;
12441;SDS011;6285;48.804;9.220;2022-09-06T13:22:36;7.85;;;6.10;;
12441;SDS011;6285;48.804;9.220;2022-09-06T13:25:05;12.32;;;6.10;;
12441;SDS011;6285;48.804;9.220;2022-09-06T13:27:41;8.98;;;5.55;;
12441;SDS011;6285;48.804;9.220;2022-09-06T13:30:28;12.88;;;6.72;;
12441;SDS011;6285;48.804;9.220;2022-09-06T13:32:56;10.65;;;6.32;;
12441;SDS011;6285;48.804;9.220;2022-09-06T13:35:24;11.98;;;6.57;;
12441;SDS011;6285;48.804;9.220;2022-09-06T13:40:44;11.27;;;6.20;;
12441;SDS011;6285;48.804;9.220;2022-09-06T13:43:11;8.57;;;5.30;;
12441;SDS011;6285;48.804;9.220;2022-09-06T13:45:38;8.25;;;5.07;;
12441;SDS011;6285;48.804;9.220;2022-09-06T13:48:07;12.60;;;6.00;;
12441;SDS011;6285;48.804;9.220;2022-09-06T13:50:34;12.10;;;6.00;;
12441;SDS011;6285;48.804;9.220;2022-09-06T13:53:01;10.60;;;5.53;;
12441;SDS011;6285;48.804;9.220;2022-09-06T13:55:29;8.52;;;6.05;;
12441;SDS011;6285;48.804;9.220;2022-09-06T13:57:57;9.00;;;5.40;;
12441;SDS011;6285;48.804;9.220;2022-09-06T14:00:24;11.48;;;6.30;;
12441;SDS011;6285;48.804;9.220;2022-09-06T14:02:52;10.75;;;5.72;;
12441;SDS011;6285;48.804;9.220;2022-09-06T14:05:21;9.20;;;5.18;;
12441;SDS011;6285;48.804;9.220;2022-09-06T14:07:47;8.00;;;4.97;;
12441;SDS011;6285;48.804;9.220;2022-09-06T14:10:15;10.18;;;4.82;;
12441;SDS011;6285;48.804;9.220;2022-09-06T14:12:45;10.95;;;5.13;;
12441;SDS011;6285;48.804;9.220;2022-09-06T14:15:12;8.48;;;5.65;;
12441;SDS011;6285;48.804;9.220;2022-09-06T14:17:39;7.68;;;4.95;;
12441;SDS011;6285;48.804;9.220;2022-09-06T14:20:07;6.38;;;5.18;;
12441;SDS011;6285;48.804;9.220;2022-09-06T14:22:35;7.65;;;5.10;;
12441;SDS011;6285;48.804;9.220;2022-09-06T14:25:02;8.98;;;5.85;;
12441;SDS011;6285;48.804;9.220;2022-09-06T14:27:31;11.90;;;6.07;;
12441;SDS011;6285;48.804;9.220;2022-09-06T14:29:59;8.57;;;5.78;;
12441;SDS011;6285;48.804;9.220;2022-09-06T14:32:25;11.65;;;5.88;;
12441;SDS011;6285;48.804;9.220;2022-09-06T14:34:52;9.35;;;6.57;;
12441;SDS011;6285;48.804;9.220;2022-09-06T14:37:19;8.98;;;5.68;;
12441;SDS011;6285;48.804;9.220;2022-09-06T14:39:47;14.65;;;6.05;;
12441;SDS011;6285;48.804;9.220;2022-09-06T14:42:15;7.78;;;5.03;;
12441;SDS011;6285;48.804;9.220;2022-09-06T14:44:41;13.20;;;6.32;;
12441;SDS011;6285;48.804;9.220;2022-09-06T14:47:08;7.88;;;5.05;;
12441;SDS011;6285;48.804;9.220;2022-09-06T14:49:36;7.68;;;5.43;;
12441;SDS011;6285;48.804;9.220;2022-09-06T14:52:02;8.35;;;5.30;;
12441;SDS011;6285;48.804;9.220;2022-09-06T14:54:29;8.25;;;5.70;;
12441;SDS011;6285;48.804;9.220;2022-09-06T14:56:58;9.52;;;5.68;;
12441;SDS011;6285;48.804;9.220;2022-09-06T14:59:25;10.55;;;5.65;;
12441;SDS011;6285;48.804;9.220;2022-09-06T15:01:52;8.35;;;5.20;;
12441;SDS011;6285;48.804;9.220;2022-09-06T15:04:19;9.50;;;5.68;;
12441;SDS011;6285;48.804;9.220;2022-09-06T15:06:46;9.95;;;5.88;;
12441;SDS011;6285;48.804;9.220;2022-09-06T15:09:14;10.30;;;5.05;;
12441;SDS011;6285;48.804;9.220;2022-09-06T15:11:42;9.80;;;5.88;;
12441;SDS011;6285;48.804;9.220;2022-09-06T15:14:13;11.43;;;5.82;;
12441;SDS011;6285;48.804;9.220;2022-09-06T15:16:40;6.53;;;4.55;;
12441;SDS011;6285;48.804;9.220;2022-09-06T15:19:08;7.55;;;4.95;;
12441;SDS011;6285;48.804;9.220;2022-09-06T15:21:35;6.72;;;5.43;;
12441;SDS011;6285;48.804;9.220;2022-09-06T15:24:02;6.35;;;5.28;;
12441;SDS011;6285;48.804;9.220;2022-09-06T15:26:30;7.90;;;5.38;;
12441;SDS011;6285;48.804;9.220;2022-09-06T15:28:58;9.27;;;4.97;;
12441;SDS011;6285;48.804;9.220;2022-09-06T15:31:27;6.38;;;4.45;;
12441;SDS011;6285;48.804;9.220;2022-09-06T15:33:55;7.95;;;4.88;;
12441;SDS011;6285;48.804;9.220;2022-09-06T15:36:23;6.70;;;4.45;;
12441;SDS011;6285;48.804;9.220;2022-09-06T15:38:51;8.55;;;4.68;;
12441;SDS011;6285;48.804;9.220;2022-09-06T15:41:19;5.85;;;3.80;;